METAR Data
IDs: Format: Raw Decoded Include TAF

Data at: 1343 UTC 07 Jul 2020

K74V 071335Z AUTO 00000KT 10SM CLR 18/02 A3001 RMK AO2
K74V 071315Z AUTO 00000KT 10SM CLR 17/02 A3001 RMK AO2
K74V 071255Z AUTO 26004KT 10SM CLR 15/02 A3001 RMK AO2
K74V 071235Z AUTO 29005KT 10SM CLR 13/03 A3000 RMK AO2
K74V 071215Z AUTO 15004KT 10SM CLR 13/03 A3001 RMK AO2
K74V 071155Z AUTO 28003KT 10SM CLR 13/02 A3000 RMK AO2
K74V 071135Z AUTO 22006KT 10SM CLR 12/03 A3000 RMK AO2
K74V 071115Z AUTO 00000KT 10SM CLR 13/04 A2999 RMK AO2
K74V 071055Z AUTO 25004KT 10SM CLR 13/03 A2999 RMK AO2
K74V 071035Z AUTO 00000KT 10SM CLR 15/03 A2999 RMK AO2
K74V 071015Z AUTO 30003KT 10SM CLR 15/03 A2999 RMK AO2
K74V 070955Z AUTO 00000KT 10SM CLR 15/03 A2999 RMK AO2
K74V 070935Z AUTO 25007KT 10SM CLR 15/04 A2999 RMK AO2
K74V 070915Z AUTO 21009KT 10SM CLR 15/05 A2998 RMK AO2
K74V 070855Z AUTO 26003KT 16/05 A2998 RMK AO2 PWINO
K74V 070835Z AUTO 26005KT 10SM CLR 16/06 A2998 RMK AO2
K74V 070815Z AUTO 00000KT 10SM CLR 16/05 A2997 RMK AO2
K74V 070755Z AUTO 00000KT 10SM CLR 15/06 A2998 RMK AO2
K74V 070735Z AUTO 26004KT 10SM CLR 16/06 A2997 RMK AO2
K74V 070715Z AUTO 24006KT 10SM CLR 16/06 A2997 RMK AO2
K74V 070655Z AUTO 25007KT 10SM CLR 16/06 A2997 RMK AO2
K74V 070635Z AUTO 25005KT 10SM CLR 17/06 A2997 RMK AO2
K74V 070615Z AUTO 25005KT 10SM CLR 18/07 A2997 RMK AO2
K74V 070555Z AUTO 27006KT 10SM CLR 19/07 A2997 RMK AO2
K74V 070535Z AUTO 24005KT 10SM CLR 20/08 A2997 RMK AO2
K74V 070515Z AUTO 24004KT 10SM CLR 21/07 A2997 RMK AO2
K74V 070455Z AUTO 25004KT 10SM CLR 22/07 A2997 RMK AO2
K74V 070435Z AUTO 00000KT 10SM CLR 23/07 A2996 RMK AO2
K74V 070415Z AUTO 26003KT 10SM CLR 24/08 A2996 RMK AO2
K74V 070355Z AUTO 33003KT 10SM CLR 26/06 A2995 RMK AO2
K74V 070335Z AUTO 00000KT 10SM CLR 27/06 A2995 RMK AO2
K74V 070315Z AUTO 00000KT 10SM CLR 28/05 A2994 RMK AO2
K74V 070255Z AUTO 26003KT 10SM CLR 28/07 A2994 RMK AO2
K74V 070235Z AUTO 00000KT 10SM CLR 31/01 A2994 RMK AO2
K74V 070215Z AUTO 00000KT 10SM CLR 31/02 A2994 RMK AO2
K74V 070155Z AUTO 14003KT 10SM CLR 33/M03 A2995 RMK AO2
K74V 070135Z AUTO 00000KT 10SM CLR 35/M03 A2995 RMK AO2
K74V 070115Z AUTO 00000KT 10SM CLR 35/M03 A2996 RMK AO2
K74V 070055Z AUTO 00000KT 10SM CLR 36/M04 A2996 RMK AO2
K74V 070035Z AUTO 22005KT 10SM CLR 36/M02 A2996 RMK AO2
K74V 070015Z AUTO 23003KT 10SM CLR 36/M03 A2996 RMK AO2
K74V 062355Z AUTO 00000KT 10SM CLR 36/M03 A2997 RMK AO2
K74V 062335Z AUTO 00000KT 10SM CLR 36/M03 A2998 RMK AO2
K74V 062315Z AUTO 00000KT 10SM CLR 36/M03 A2999 RMK AO2
K74V 062255Z AUTO 07003KT 10SM CLR 36/M03 A3000 RMK AO2
K74V 062235Z AUTO 10003KT 10SM CLR 36/M03 A3000 RMK AO2
K74V 062215Z AUTO 00000KT 10SM CLR 35/M03 A3001 RMK AO2
K74V 062155Z AUTO 17005KT 10SM CLR 36/M03 A3002 RMK AO2
K74V 062135Z AUTO 17007KT 10SM CLR 36/M03 A3002 RMK AO2
K74V 062115Z AUTO 21005KT 10SM CLR 36/M02 A3003 RMK AO2
K74V 062055Z AUTO 16006KT 135V195 10SM CLR 35/M02 A3004 RMK AO2
K74V 062035Z AUTO 09004KT 10SM CLR 35/M02 A3004 RMK AO2
K74V 062015Z AUTO 13005KT 10SM CLR 35/M02 A3005 RMK AO2
K74V 061955Z AUTO 13005KT 10SM CLR 33/M02 A3007 RMK AO2
K74V 061935Z AUTO 14005KT 10SM CLR 33/M01 A3008 RMK AO2
K74V 061915Z AUTO 13005KT 10SM CLR 33/00 A3008 RMK AO2
K74V 061855Z AUTO 00000KT 10SM CLR 32/00 A3009 RMK AO2
K74V 061835Z AUTO 13003KT 10SM CLR 32/00 A3010 RMK AO2
K74V 061815Z AUTO 15005KT 10SM CLR 31/M01 A3011 RMK AO2
K74V 061755Z AUTO 07003KT 10SM CLR 30/M01 A3011 RMK AO2
K74V 061735Z AUTO 09005KT 10SM CLR 30/00 A3011 RMK AO2
K74V 061715Z AUTO 13005KT 10SM CLR 29/00 A3012 RMK AO2
K74V 061655Z AUTO 18004KT 10SM CLR 29/00 A3013 RMK AO2
K74V 061635Z AUTO 23003KT 10SM CLR 28/00 A3013 RMK AO2
K74V 061615Z AUTO 21005KT 10SM CLR 27/00 A3013 RMK AO2
K74V 061555Z AUTO 22004KT 10SM CLR 27/00 A3013 RMK AO2
K74V 061535Z AUTO 20003KT 10SM CLR 25/01 A3013 RMK AO2
K74V 061515Z AUTO 24005KT 10SM CLR 25/01 A3013 RMK AO2
K74V 061455Z AUTO 22005KT 10SM CLR 23/02 A3013 RMK AO2
K74V 061435Z AUTO 20004KT 10SM CLR 22/03 A3013 RMK AO2
K74V 061415Z AUTO 24005KT 10SM CLR 21/05 A3013 RMK AO2
K74V 061355Z AUTO 25005KT 10SM CLR 18/06 A3012 RMK AO2
K74V 061335Z AUTO 25006KT 10SM CLR 16/06 A3012 RMK AO2
K74V 061315Z AUTO 26004KT 10SM CLR 14/04 A3012 RMK AO2
K74V 061255Z AUTO 25005KT 10SM CLR 12/03 A3012 RMK AO2
K74V 061235Z AUTO 26005KT 10SM CLR 12/03 A3011 RMK AO2
K74V 061215Z AUTO 24006KT 10SM CLR 12/02 A3011 RMK AO2
K74V 061155Z AUTO 26007KT 10SM CLR 11/03 A3011 RMK AO2
K74V 061135Z AUTO 26006KT 10SM CLR 11/03 A3011 RMK AO2
K74V 061115Z AUTO 26006KT 10SM CLR 11/03 A3010 RMK AO2
K74V 061055Z AUTO 25006KT 10SM CLR 10/03 A3009 RMK AO2
K74V 061035Z AUTO 24005KT 10SM CLR 11/03 A3009 RMK AO2
K74V 061015Z AUTO 25003KT 10SM CLR 11/03 A3009 RMK AO2
K74V 060955Z AUTO 26004KT 10SM CLR 11/03 A3009 RMK AO2
K74V 060935Z AUTO 26004KT 10SM CLR 11/03 A3009 RMK AO2
K74V 060915Z AUTO 23003KT 10SM CLR 12/03 A3008 RMK AO2
K74V 060855Z AUTO 24003KT 10SM CLR 12/03 A3008 RMK AO2
K74V 060835Z AUTO 26004KT 10SM CLR 13/03 A3008 RMK AO2
K74V 060815Z AUTO 26004KT 10SM CLR 13/03 A3007 RMK AO2
K74V 060755Z AUTO 26006KT 10SM CLR 13/03 A3007 RMK AO2
K74V 060735Z AUTO 00000KT 10SM CLR 16/02 A3007 RMK AO2
K74V 060715Z AUTO 27007KT 10SM CLR 17/01 A3007 RMK AO2
K74V 060655Z AUTO 26006KT 10SM CLR 17/00 A3007 RMK AO2
K74V 060635Z AUTO 00000KT 10SM CLR 20/00 A3007 RMK AO2
K74V 060615Z AUTO 00000KT 10SM CLR 16/02 A3007 RMK AO2
K74V 060555Z AUTO 22007KT 10SM CLR 16/02 A3006 RMK AO2
K74V 060535Z AUTO 00000KT 10SM CLR 20/M01 A3005 RMK AO2
K74V 060515Z AUTO 00000KT 10SM CLR 20/00 A3005 RMK AO2
K74V 060455Z AUTO 00000KT 10SM CLR 19/01 A3005 RMK AO2
K74V 060435Z AUTO 25003KT 10SM CLR 20/01 A3005 RMK AO2
K74V 060415Z AUTO 26004KT 10SM CLR 22/00 A3004 RMK AO2
K74V 060355Z AUTO 27003KT 10SM CLR 27/M04 A3004 RMK AO2
K74V 060335Z AUTO 00000KT 10SM CLR 26/M03 A3003 RMK AO2
K74V 060315Z AUTO 00000KT 10SM CLR 28/M05 A3002 RMK AO2
K74V 060255Z AUTO 30004KT 10SM CLR 30/M05 A3002 RMK AO2
K74V 060235Z AUTO 31006KT 10SM CLR 31/M05 A3002 RMK AO2
K74V 060215Z AUTO 30009KT 10SM CLR 32/M04 A3002 RMK AO2
K74V 060155Z AUTO 32010KT 10SM CLR 33/M04 A3002 RMK AO2